createdAt,value
2022-08-22T00:02:10.596Z,52.40
2022-08-22T00:02:46.133Z,52.31
2022-08-22T00:04:48.840Z,52.59
2022-08-22T00:07:38.824Z,52.64
2022-08-22T00:10:25.285Z,52.96
2022-08-22T00:13:02.342Z,52.95
2022-08-22T00:15:43.567Z,53.37
2022-08-22T00:18:31.867Z,53.53
2022-08-22T00:21:12.018Z,53.96
2022-08-22T00:23:44.751Z,54.13
2022-08-22T00:26:23.966Z,54.20
2022-08-22T00:28:58.186Z,54.44
2022-08-22T00:31:34.657Z,54.86
2022-08-22T00:34:07.945Z,54.99
2022-08-22T00:36:40.655Z,55.20
2022-08-22T00:39:16.031Z,55.31
2022-08-22T00:42:29.505Z,55.67
2022-08-22T00:45:45.730Z,55.94
2022-08-22T00:48:43.260Z,55.88
2022-08-22T00:51:32.586Z,56.14
2022-08-22T00:54:17.617Z,56.27
2022-08-22T00:57:00.474Z,56.50
2022-08-22T00:59:56.402Z,56.88
2022-08-22T01:02:33.289Z,56.82
2022-08-22T01:05:18.836Z,57.12
2022-08-22T01:08:06.387Z,57.16
2022-08-22T01:10:50.774Z,57.28
2022-08-22T01:13:35.725Z,57.55
2022-08-22T01:16:21.467Z,57.59
2022-08-22T01:19:15.021Z,57.61
2022-08-22T01:23:56.385Z,57.74
2022-08-22T01:26:57.474Z,57.74
2022-08-22T01:30:00.152Z,58.21
2022-08-22T01:33:12.091Z,58.14
2022-08-22T01:36:20.054Z,58.27
2022-08-22T01:39:03.327Z,58.70
2022-08-22T01:41:58.909Z,58.38
2022-08-22T01:44:49.272Z,58.62
2022-08-22T01:47:22.124Z,59.30
2022-08-22T01:49:55.414Z,59.92
2022-08-22T01:52:40.121Z,60.01
2022-08-22T01:55:22.444Z,60.44
2022-08-22T01:57:53.979Z,60.66
2022-08-22T02:00:34.842Z,60.96
2022-08-22T02:03:24.184Z,61.26
2022-08-22T02:06:00.561Z,61.43
2022-08-22T02:08:39.408Z,61.57
2022-08-22T02:11:29.732Z,61.77
2022-08-22T02:14:04.328Z,62.19
2022-08-22T02:16:39.795Z,62.54
2022-08-22T02:19:22.304Z,62.83
2022-08-22T02:21:56.462Z,63.20
2022-08-22T02:24:36.937Z,63.19
2022-08-22T02:27:13.945Z,63.60
2022-08-22T02:29:51.563Z,63.79
2022-08-22T02:32:28.056Z,64.22
2022-08-22T02:35:06.839Z,63.98
2022-08-22T02:37:42.006Z,63.95
2022-08-22T02:40:28.100Z,64.59
2022-08-22T02:43:03.821Z,64.85
2022-08-22T02:45:39.140Z,64.43
2022-08-22T02:48:18.157Z,64.93
2022-08-22T02:50:52.464Z,65.09
2022-08-22T02:53:28.173Z,65.31
2022-08-22T02:56:04.225Z,65.93
2022-08-22T02:58:43.844Z,65.89
2022-08-22T03:01:22.515Z,66.23
2022-08-22T03:03:52.507Z,66.18
2022-08-22T03:06:39.214Z,66.76
2022-08-22T03:09:24.956Z,67.06
2022-08-22T03:12:10.369Z,67.96
2022-08-22T03:14:45.773Z,67.79
2022-08-22T03:17:20.161Z,67.97
2022-08-22T03:20:00.343Z,67.79
2022-08-22T03:22:39.012Z,68.16
2022-08-22T03:25:15.627Z,68.31
2022-08-22T03:27:51.871Z,68.55
2022-08-22T03:30:23.317Z,68.95
2022-08-22T03:32:55.573Z,69.20
2022-08-22T03:35:37.892Z,69.48
2022-08-22T03:38:19.741Z,69.29
2022-08-22T03:41:04.747Z,69.72
2022-08-22T03:44:00.705Z,69.63
2022-08-22T03:46:52.744Z,69.73
2022-08-22T03:50:09.540Z,70.34
2022-08-22T03:53:18.581Z,70.25
2022-08-22T03:56:14.550Z,70.52
2022-08-22T03:59:09.815Z,71.00
2022-08-22T04:01:57.544Z,71.45
2022-08-22T04:04:59.108Z,71.38
2022-08-22T04:07:47.069Z,72.15
2022-08-22T04:10:52.042Z,71.78
2022-08-22T04:14:05.902Z,72.35
2022-08-22T04:17:12.955Z,72.31
2022-08-22T04:20:20.924Z,72.81
2022-08-22T04:23:17.153Z,72.76
2022-08-22T04:25:53.952Z,72.54
2022-08-22T04:28:31.863Z,72.79
2022-08-22T04:31:07.797Z,73.15
2022-08-22T04:33:53.040Z,73.32
2022-08-22T04:36:26.333Z,73.16
2022-08-22T04:38:57.406Z,73.46
2022-08-22T04:41:31.385Z,73.30
2022-08-22T04:44:04.838Z,73.40
2022-08-22T04:46:39.338Z,73.52
2022-08-22T04:49:15.190Z,73.76
2022-08-22T04:51:48.763Z,73.72
2022-08-22T04:54:33.735Z,73.72
2022-08-22T04:57:20.300Z,74.10
2022-08-22T04:59:50.496Z,73.79
2022-08-22T05:02:25.328Z,73.97
2022-08-22T05:05:04.180Z,74.00
2022-08-22T05:07:36.434Z,73.63
2022-08-22T05:10:12.525Z,73.97
2022-08-22T05:12:45.261Z,73.67
2022-08-22T05:15:23.143Z,73.63
2022-08-22T05:17:58.233Z,73.17
2022-08-22T05:20:29.585Z,73.07
2022-08-22T05:23:01.349Z,72.60
2022-08-22T05:25:38.607Z,72.32
2022-08-22T05:28:12.092Z,71.22
2022-08-22T05:30:41.142Z,70.36
2022-08-22T05:33:20.391Z,69.42
2022-08-22T05:35:57.753Z,68.62
2022-08-22T05:38:31.655Z,67.42
2022-08-22T05:41:05.499Z,67.01
2022-08-22T05:43:39.479Z,66.11
2022-08-22T05:46:20.617Z,64.78
2022-08-22T05:49:00.317Z,64.59
2022-08-22T05:51:35.380Z,64.11
2022-08-22T05:54:12.631Z,63.24
2022-08-22T05:56:47.144Z,63.11
2022-08-22T05:59:25.500Z,64.04
2022-08-22T06:02:03.056Z,64.17
2022-08-22T06:04:38.765Z,64.16
2022-08-22T06:07:11.645Z,64.31
2022-08-22T06:10:04.823Z,64.91
2022-08-22T06:12:38.934Z,64.12
2022-08-22T06:15:20.956Z,64.23
2022-08-22T06:17:57.702Z,63.82
2022-08-22T06:20:37.906Z,63.37
2022-08-22T06:24:29.137Z,60.76
2022-08-22T06:27:05.282Z,58.95
2022-08-22T06:29:38.810Z,56.75
2022-08-22T06:32:13.070Z,54.08
2022-08-22T06:34:44.602Z,51.74
2022-08-22T06:37:18.702Z,49.92
2022-08-22T06:39:54.005Z,48.48
2022-08-22T06:42:25.156Z,45.63
2022-08-22T06:45:00.454Z,44.98
2022-08-22T06:47:34.184Z,44.09
2022-08-22T06:50:06.708Z,42.47
2022-08-22T06:52:52.223Z,40.11
2022-08-22T06:55:23.827Z,39.31
2022-08-22T06:57:57.786Z,38.14
2022-08-22T07:00:29.130Z,36.03
2022-08-22T07:03:01.387Z,35.46
2022-08-22T07:05:38.784Z,36.21
2022-08-22T07:08:09.222Z,34.70
2022-08-22T07:10:42.361Z,34.73
2022-08-22T07:13:16.165Z,34.90
2022-08-22T07:15:54.988Z,33.87
2022-08-22T07:18:28.730Z,33.74
2022-08-22T07:20:57.889Z,33.78
2022-08-22T07:23:32.527Z,31.58
2022-08-22T07:26:15.923Z,31.25
2022-08-22T07:28:51.166Z,32.27
2022-08-22T07:31:34.592Z,29.73
2022-08-22T07:34:21.785Z,32.31
2022-08-22T07:36:57.512Z,31.15
2022-08-22T07:39:30.120Z,32.34
2022-08-22T07:42:06.884Z,33.05
2022-08-22T07:44:44.180Z,34.75
2022-08-22T07:47:18.035Z,36.32
2022-08-22T07:49:56.076Z,36.50
2022-08-22T07:52:25.011Z,37.32
2022-08-22T07:54:57.828Z,36.93
2022-08-22T07:57:33.415Z,36.61
2022-08-22T08:00:04.717Z,36.62
2022-08-22T08:02:45.560Z,33.83
2022-08-22T08:05:15.360Z,32.87
2022-08-22T08:07:46.216Z,32.89
2022-08-22T08:10:19.993Z,32.86
2022-08-22T08:13:02.486Z,33.26
2022-08-22T08:15:34.881Z,29.92
2022-08-22T08:18:06.883Z,29.02
2022-08-22T08:20:38.500Z,27.51
2022-08-22T08:23:10.407Z,26.91
2022-08-22T08:25:54.657Z,26.48
2022-08-22T08:28:38.706Z,26.56
2022-08-22T08:31:11.167Z,25.91
2022-08-22T08:33:44.165Z,26.94
2022-08-22T08:36:26.531Z,25.76
2022-08-22T08:39:00.105Z,24.32
2022-08-22T08:42:00.457Z,24.26
2022-08-22T08:44:58.026Z,24.65
2022-08-22T08:47:39.888Z,24.27
2022-08-22T08:50:29.002Z,23.94
2022-08-22T08:53:31.312Z,23.11
2022-08-22T08:56:02.873Z,22.54
2022-08-22T08:58:49.083Z,22.91
2022-08-22T09:01:37.446Z,24.37
2022-08-22T09:04:47.432Z,24.38
2022-08-22T09:08:00.789Z,25.30
2022-08-22T09:10:50.387Z,26.06
2022-08-22T09:13:41.515Z,26.68
2022-08-22T09:16:45.065Z,26.54
2022-08-22T09:19:45.352Z,26.92
2022-08-22T09:22:49.941Z,25.65
2022-08-22T09:25:27.908Z,26.65
2022-08-22T09:28:15.336Z,26.46
2022-08-22T09:30:59.064Z,26.26
2022-08-22T09:33:36.350Z,24.27
2022-08-22T09:36:12.287Z,24.81
2022-08-22T09:38:51.527Z,26.01
2022-08-22T09:41:33.670Z,24.92
2022-08-22T09:44:13.292Z,23.41
2022-08-22T09:46:53.352Z,23.14
2022-08-22T09:49:33.813Z,24.84
2022-08-22T09:52:15.308Z,24.22
2022-08-22T09:55:08.536Z,23.37
2022-08-22T09:57:40.770Z,24.76
2022-08-22T10:00:22.022Z,23.60
2022-08-22T10:03:03.984Z,23.16
2022-08-22T10:05:44.921Z,22.89
2022-08-22T10:08:49.253Z,22.25
2022-08-22T10:11:28.759Z,22.95
2022-08-22T10:14:04.382Z,24.83
2022-08-22T10:17:03.913Z,25.27
2022-08-22T10:19:43.422Z,23.41
2022-08-22T10:22:21.689Z,21.88
2022-08-22T10:25:05.791Z,22.11
2022-08-22T10:27:47.957Z,22.15
2022-08-22T10:30:20.309Z,21.19
2022-08-22T10:33:00.686Z,21.23
2022-08-22T10:35:33.941Z,21.70
2022-08-22T10:38:10.872Z,20.65
2022-08-22T10:40:48.319Z,21.14
2022-08-22T10:43:28.735Z,21.59
2022-08-22T10:46:03.784Z,19.79
2022-08-22T10:48:38.491Z,20.26
2022-08-22T10:51:21.560Z,22.33
2022-08-22T10:54:19.961Z,20.67
2022-08-22T10:56:57.714Z,21.28
2022-08-22T10:59:40.763Z,20.17
2022-08-22T11:02:37.516Z,19.18
2022-08-22T11:05:27.259Z,18.78
2022-08-22T11:08:17.576Z,20.12
2022-08-22T11:11:06.033Z,19.82
2022-08-22T11:13:43.493Z,21.29
2022-08-22T11:16:27.557Z,22.61
2022-08-22T11:19:15.613Z,22.62
2022-08-22T11:21:52.945Z,21.33
2022-08-22T11:25:52.583Z,20.74
2022-08-22T11:28:49.139Z,20.37
2022-08-22T11:31:31.791Z,20.05
2022-08-22T11:34:11.651Z,21.33
2022-08-22T11:36:46.508Z,20.89
2022-08-22T11:39:24.406Z,21.72
2022-08-22T11:42:06.124Z,21.27
2022-08-22T11:44:50.657Z,21.94
2022-08-22T11:47:28.810Z,20.05
2022-08-22T11:50:03.532Z,19.69
2022-08-22T11:52:58.064Z,21.15
2022-08-22T11:55:35.994Z,18.49
2022-08-22T11:58:21.800Z,18.83
2022-08-22T12:01:02.793Z,18.33
2022-08-22T12:04:05.116Z,18.44
2022-08-22T12:06:49.728Z,18.94
2022-08-22T12:09:50.618Z,21.15
2022-08-22T12:12:26.654Z,22.60
2022-08-22T12:15:03.080Z,23.49
2022-08-22T12:18:19.965Z,23.35
2022-08-22T12:21:21.551Z,22.74
2022-08-22T12:24:20.946Z,23.16
2022-08-22T12:27:18.439Z,25.39
2022-08-22T12:30:15.163Z,26.02
2022-08-22T12:33:16.378Z,26.71
2022-08-22T12:36:04.803Z,26.39
2022-08-22T12:38:47.624Z,24.96
2022-08-22T12:41:36.104Z,25.31
2022-08-22T12:44:21.486Z,25.93
2022-08-22T12:47:05.204Z,26.20
2022-08-22T12:49:49.921Z,26.78
2022-08-22T12:52:38.004Z,26.56
2022-08-22T12:55:43.830Z,25.78
2022-08-22T12:58:24.398Z,24.78
2022-08-22T13:00:53.452Z,25.40
2022-08-22T13:03:28.566Z,25.87
2022-08-22T13:06:00.611Z,26.15
2022-08-22T13:08:37.140Z,26.81
2022-08-22T13:11:23.294Z,26.56
2022-08-22T13:13:56.430Z,26.02
2022-08-22T13:16:36.392Z,26.13
2022-08-22T13:19:14.564Z,25.73
2022-08-22T13:21:49.027Z,25.76
2022-08-22T13:24:38.656Z,26.12
2022-08-22T13:27:17.013Z,26.22
2022-08-22T13:29:53.864Z,26.09
2022-08-22T13:32:32.353Z,26.31
2022-08-22T13:35:02.739Z,26.77
2022-08-22T13:37:37.632Z,26.41
2022-08-22T13:40:10.883Z,26.45
2022-08-22T13:42:48.023Z,26.22
2022-08-22T13:45:22.814Z,26.58
2022-08-22T13:47:55.880Z,26.55
2022-08-22T13:50:28.999Z,25.89
2022-08-22T13:53:08.123Z,26.36
2022-08-22T13:55:43.964Z,26.20
2022-08-22T13:58:31.332Z,26.62
2022-08-22T14:01:15.909Z,26.17
2022-08-22T14:03:49.980Z,25.97
2022-08-22T14:06:37.881Z,25.77
2022-08-22T14:09:31.559Z,25.61
2022-08-22T14:12:12.656Z,26.32
2022-08-22T14:14:45.998Z,26.97
2022-08-22T14:17:21.119Z,26.96
2022-08-22T14:19:59.073Z,27.22
2022-08-22T14:22:35.454Z,27.19
2022-08-22T14:25:09.140Z,27.57
2022-08-22T14:27:43.862Z,27.58
2022-08-22T14:30:18.639Z,27.32
2022-08-22T14:32:51.331Z,27.35
2022-08-22T14:35:34.618Z,27.38
2022-08-22T14:38:29.715Z,26.72
2022-08-22T14:41:06.843Z,26.96
2022-08-22T14:43:56.784Z,27.01
2022-08-22T14:46:35.238Z,27.03
2022-08-22T14:49:16.024Z,27.60
2022-08-22T14:51:50.726Z,27.34
2022-08-22T14:54:29.234Z,26.88
2022-08-22T14:57:01.827Z,27.38
2022-08-22T14:59:39.461Z,27.77
2022-08-22T15:02:14.902Z,27.63
2022-08-22T15:04:45.479Z,27.91
2022-08-22T15:07:24.204Z,28.27
2022-08-22T15:09:58.852Z,28.77
2022-08-22T15:12:29.795Z,28.35
2022-08-22T15:15:02.726Z,27.54
2022-08-22T15:17:35.737Z,27.82
2022-08-22T15:20:14.410Z,28.27
2022-08-22T15:22:46.713Z,28.54
2022-08-22T15:25:19.360Z,27.44
2022-08-22T15:27:53.918Z,27.79
2022-08-22T15:30:32.793Z,27.83
2022-08-22T15:33:14.423Z,28.29
2022-08-22T15:35:44.092Z,27.25
2022-08-22T15:38:27.912Z,27.48
2022-08-22T15:41:17.881Z,28.13
2022-08-22T15:43:50.665Z,27.98
2022-08-22T15:46:29.800Z,28.45
2022-08-22T15:49:03.515Z,29.05
2022-08-22T15:51:39.310Z,29.55
2022-08-22T15:54:24.717Z,29.13
2022-08-22T15:57:16.170Z,28.54
2022-08-22T15:59:55.764Z,27.51
2022-08-22T16:02:34.910Z,27.29
2022-08-22T16:05:24.525Z,27.38
2022-08-22T16:08:03.598Z,26.81
2022-08-22T16:10:37.644Z,26.85
2022-08-22T16:13:33.612Z,27.47
2022-08-22T16:16:06.986Z,27.31
2022-08-22T16:19:17.233Z,27.99
2022-08-22T16:22:08.333Z,28.09
2022-08-22T16:26:39.452Z,27.49
2022-08-22T16:29:31.488Z,28.42
2022-08-22T16:32:10.583Z,27.78
2022-08-22T16:34:44.000Z,28.09
2022-08-22T16:37:36.943Z,28.08
2022-08-22T16:40:14.960Z,28.09
2022-08-22T16:42:47.372Z,27.93
2022-08-22T16:45:33.951Z,28.51
2022-08-22T16:48:23.435Z,28.96
2022-08-22T16:51:06.828Z,29.11
2022-08-22T16:54:03.807Z,29.47
2022-08-22T16:56:38.352Z,29.87
2022-08-22T16:59:28.458Z,30.60
2022-08-22T17:02:28.326Z,30.55
2022-08-22T17:05:11.715Z,30.54
2022-08-22T17:07:55.284Z,31.02
2022-08-22T17:10:51.429Z,31.08
2022-08-22T17:13:32.985Z,31.70
2022-08-22T17:16:16.083Z,31.39
2022-08-22T17:18:57.739Z,31.58
2022-08-22T17:21:30.130Z,31.66
2022-08-22T17:24:06.283Z,31.74
2022-08-22T17:26:55.188Z,31.22
2022-08-22T17:29:34.025Z,31.47
2022-08-22T17:32:12.099Z,31.90
2022-08-22T17:34:51.175Z,31.81
2022-08-22T17:37:26.946Z,32.34
2022-08-22T17:40:16.040Z,32.31
2022-08-22T17:43:00.292Z,32.65
2022-08-22T17:45:42.831Z,32.07
2022-08-22T17:48:19.928Z,31.99
2022-08-22T17:50:55.571Z,32.03
2022-08-22T17:53:31.681Z,32.88
2022-08-22T17:56:08.095Z,32.43
2022-08-22T17:58:44.505Z,32.31
2022-08-22T18:01:16.710Z,32.75
2022-08-22T18:03:53.463Z,33.11
2022-08-22T18:06:30.723Z,33.04
2022-08-22T18:09:19.319Z,33.35
2022-08-22T18:11:53.472Z,33.40
2022-08-22T18:14:29.741Z,33.92
2022-08-22T18:17:00.818Z,34.22
2022-08-22T18:19:43.324Z,34.62
2022-08-22T18:22:24.173Z,35.36
2022-08-22T18:24:58.554Z,35.18
2022-08-22T18:27:35.632Z,35.91
2022-08-22T18:30:17.343Z,36.20
2022-08-22T18:32:57.389Z,36.69
2022-08-22T18:35:32.433Z,36.96
2022-08-22T18:38:19.103Z,37.33
2022-08-22T18:40:55.604Z,37.75
2022-08-22T18:43:38.142Z,38.05
2022-08-22T18:46:31.639Z,38.34
2022-08-22T18:49:15.469Z,38.49
2022-08-22T18:51:45.357Z,38.60
2022-08-22T18:54:36.650Z,38.24
2022-08-22T18:57:23.670Z,38.45
2022-08-22T19:00:07.036Z,38.47
2022-08-22T19:03:14.171Z,38.89
2022-08-22T19:06:04.693Z,39.62
2022-08-22T19:08:59.362Z,39.45
2022-08-22T19:11:43.083Z,39.62
2022-08-22T19:14:50.560Z,39.46
2022-08-22T19:17:38.840Z,39.89
2022-08-22T19:20:31.381Z,39.99
2022-08-22T19:23:32.497Z,40.27
2022-08-22T19:26:28.912Z,40.32
2022-08-22T19:29:01.249Z,40.75
2022-08-22T19:31:49.380Z,41.05
2022-08-22T19:34:41.422Z,40.78
2022-08-22T19:37:32.554Z,40.61
2022-08-22T19:40:06.944Z,40.61
2022-08-22T19:42:43.171Z,40.95
2022-08-22T19:45:23.381Z,41.04
2022-08-22T19:47:58.856Z,41.50
2022-08-22T19:50:35.157Z,41.46
2022-08-22T19:53:31.283Z,41.81
2022-08-22T19:56:12.756Z,42.45
2022-08-22T19:58:54.519Z,42.92
2022-08-22T20:01:37.263Z,43.00
2022-08-22T20:04:11.075Z,42.93
2022-08-22T20:06:44.491Z,43.38
2022-08-22T20:09:25.274Z,43.36
2022-08-22T20:12:04.003Z,43.87
2022-08-22T20:14:37.109Z,43.92
2022-08-22T20:17:10.873Z,44.62
2022-08-22T20:22:45.425Z,45.06
2022-08-22T20:25:43.137Z,45.87
2022-08-22T20:28:14.874Z,46.04
2022-08-22T20:30:47.769Z,46.47
2022-08-22T20:33:22.964Z,47.25
2022-08-22T20:35:55.054Z,47.51
2022-08-22T20:38:27.918Z,47.80
2022-08-22T20:41:11.649Z,48.37
2022-08-22T20:43:50.714Z,48.63
2022-08-22T20:46:43.558Z,48.78
2022-08-22T20:49:18.704Z,48.91
2022-08-22T20:51:53.863Z,48.96
2022-08-22T20:54:27.241Z,49.50
2022-08-22T20:56:57.450Z,49.64
2022-08-22T20:59:36.914Z,49.92
2022-08-22T21:02:14.497Z,50.01
2022-08-22T21:04:52.777Z,50.01
2022-08-22T21:07:26.752Z,50.40
2022-08-22T21:10:21.717Z,50.54
2022-08-22T21:13:04.413Z,50.93
2022-08-22T21:15:40.622Z,51.15
2022-08-22T21:18:11.983Z,50.97
2022-08-22T21:20:41.838Z,51.35
2022-08-22T21:23:15.015Z,50.92
2022-08-22T21:27:31.493Z,50.87
2022-08-22T21:30:06.662Z,51.43
2022-08-22T21:32:41.273Z,51.21
2022-08-22T21:35:24.927Z,51.02
2022-08-22T21:37:53.825Z,51.29
2022-08-22T21:40:29.749Z,51.60
2022-08-22T21:43:06.528Z,51.54
2022-08-22T21:45:41.251Z,51.40
2022-08-22T21:48:41.162Z,51.46
2022-08-22T21:51:42.762Z,52.03
2022-08-22T21:54:39.567Z,52.61
2022-08-22T21:57:36.067Z,52.24
2022-08-22T22:00:31.456Z,52.32
2022-08-22T22:03:00.776Z,52.09
2022-08-22T22:05:30.986Z,52.17
2022-08-22T22:07:59.389Z,52.74
2022-08-22T22:10:30.075Z,52.61
2022-08-22T22:12:59.639Z,52.32
2022-08-22T22:15:33.242Z,52.35
2022-08-22T22:18:01.624Z,52.47
2022-08-22T22:20:30.105Z,52.75
2022-08-22T22:22:58.970Z,52.88
2022-08-22T22:25:38.882Z,52.69
2022-08-22T22:28:15.545Z,52.92
2022-08-22T22:30:50.573Z,53.97
2022-08-22T22:33:18.793Z,53.62
2022-08-22T22:35:50.601Z,54.34
2022-08-22T22:38:24.136Z,54.69
2022-08-22T22:40:53.355Z,54.81
2022-08-22T22:43:23.797Z,54.54
2022-08-22T22:45:53.322Z,54.33
2022-08-22T22:48:24.518Z,54.73
2022-08-22T22:50:53.621Z,54.90
2022-08-22T22:53:33.717Z,54.84
2022-08-22T22:56:09.584Z,54.59
2022-08-22T22:58:38.987Z,54.92
2022-08-22T23:01:12.938Z,55.44
2022-08-22T23:03:41.428Z,56.28
2022-08-22T23:06:12.286Z,55.91
2022-08-22T23:08:40.477Z,56.34
2022-08-22T23:11:11.719Z,56.56
2022-08-22T23:13:42.903Z,56.68
2022-08-22T23:16:15.752Z,57.53
2022-08-22T23:18:43.916Z,57.87
2022-08-22T23:21:15.106Z,57.50
2022-08-22T23:23:43.892Z,57.85
2022-08-22T23:26:12.840Z,57.83
2022-08-22T23:28:41.791Z,58.15
2022-08-22T23:31:14.695Z,58.18
2022-08-22T23:33:43.358Z,57.71
2022-08-22T23:36:13.700Z,57.71
2022-08-22T23:38:41.830Z,57.64
2022-08-22T23:41:11.761Z,58.24
2022-08-22T23:43:43.156Z,57.62
2022-08-22T23:46:14.021Z,58.29
2022-08-22T23:48:42.871Z,57.93
2022-08-22T23:51:15.102Z,57.75
2022-08-22T23:53:45.574Z,57.91
2022-08-22T23:56:19.869Z,58.29
2022-08-22T23:58:49.285Z,58.42
